Time;durP1;ratioP1;P1;durP2;ratioP2;P2;SDS_P1;SDS_P2;PMS_P1;PMS_P2;Temp;Humidity;BMP_temperature;BMP_pressure;BME280_temperature;BME280_humidity;BME280_pressure;Samples;Min_cycle;Max_cycle;Signal;HPM_P1;HPM_P2
2024/03/02 00:01:27;;;;;;;60.33;35.72;;;;;;;-145.63;100.00;61273.97;5016845;28;20390;-67
2024/03/02 00:03:52;;;;;;;59.80;35.25;;;;;;;-145.63;100.00;61273.97;5017056;28;20475;-67
2024/03/02 00:06:21;;;;;;;61.85;36.78;;;;;;;-145.63;100.00;61273.97;5016262;28;20034;-67
2024/03/02 00:08:47;;;;;;;55.80;35.70;;;;;;;-145.63;100.00;61273.97;5000137;28;20031;-66
2024/03/02 00:11:15;;;;;;;60.47;37.67;;;;;;;-145.63;100.00;61273.97;5008720;28;20084;-67
2024/03/02 00:13:41;;;;;;;60.38;37.08;;;;;;;-145.63;100.00;61273.97;5009570;28;20026;-67
2024/03/02 00:16:06;;;;;;;58.65;38.53;;;;;;;-145.63;100.00;61273.97;4999748;28;20096;-65
2024/03/02 00:18:35;;;;;;;65.28;38.80;;;;;;;-145.63;100.00;61273.97;5016934;28;20123;-67
2024/03/02 00:21:02;;;;;;;61.40;38.20;;;;;;;-145.63;100.00;61273.97;4998561;28;20453;-69
2024/03/02 00:23:30;;;;;;;58.25;37.95;;;;;;;-145.63;100.00;61273.97;5010203;28;20041;-66
2024/03/02 00:25:57;;;;;;;60.08;36.67;;;;;;;-145.63;100.00;61273.97;5007059;28;20038;-68
2024/03/02 00:28:33;;;;;;;56.60;36.80;;;;;;;-145.63;100.00;61273.97;5001310;28;20455;-66
2024/03/02 00:31:13;;;;;;;63.72;37.85;;;;;;;-145.63;100.00;61273.97;5015520;28;20041;-66
2024/03/02 00:33:46;;;;;;;62.47;38.58;;;;;;;-145.63;100.00;61273.97;4997008;28;20057;-66
2024/03/02 00:36:15;;;;;;;61.17;36.53;;;;;;;-145.63;100.00;61273.97;5035266;28;20475;-68
2024/03/02 00:38:47;;;;;;;61.92;36.63;;;;;;;-145.63;100.00;61273.97;5036187;28;20483;-67
2024/03/02 00:41:31;;;;;;;59.35;37.00;;;;;;;-145.63;100.00;61273.97;5023265;28;20332;-65
2024/03/02 00:44:01;;;;;;;63.45;38.15;;;;;;;-145.63;100.00;61273.97;5007438;28;20042;-67
2024/03/02 00:46:34;;;;;;;61.95;36.97;;;;;;;-145.63;100.00;61273.97;4996668;28;20038;-65
2024/03/02 00:49:02;;;;;;;58.55;37.42;;;;;;;-145.63;100.00;61273.97;5007243;28;20038;-65
2024/03/02 00:51:30;;;;;;;60.20;36.83;;;;;;;-145.63;100.00;61273.97;4996602;28;20034;-66
2024/03/02 00:53:58;;;;;;;63.65;39.35;;;;;;;-145.63;100.00;61273.97;5013229;28;20033;-67
2024/03/02 00:56:24;;;;;;;63.95;37.80;;;;;;;-145.63;100.00;61273.97;5001722;28;20026;-66
2024/03/02 00:58:51;;;;;;;62.78;37.83;;;;;;;-145.63;100.00;61273.97;5004673;28;20157;-66
2024/03/02 01:01:19;;;;;;;59.65;37.33;;;;;;;-145.63;100.00;61273.97;5015597;28;20054;-67
2024/03/02 01:03:45;;;;;;;57.65;37.28;;;;;;;-145.63;100.00;61273.97;5015642;28;20030;-67
2024/03/02 01:06:11;;;;;;;57.55;37.08;;;;;;;-145.63;100.00;61273.97;4996901;28;20113;-66
2024/03/02 01:08:38;;;;;;;59.90;37.00;;;;;;;-145.63;100.00;61273.97;5010848;28;20056;-67
2024/03/02 01:11:04;;;;;;;57.58;36.50;;;;;;;-145.63;100.00;61273.97;5005675;28;20035;-68
2024/03/02 01:13:31;;;;;;;68.90;38.17;;;;;;;-145.63;100.00;61273.97;5000700;28;20113;-68
2024/03/02 01:15:57;;;;;;;63.22;37.97;;;;;;;-145.63;100.00;61273.97;5015329;28;20030;-66
2024/03/02 01:18:23;;;;;;;57.25;37.67;;;;;;;-145.63;100.00;61273.97;4995822;28;20048;-66
2024/03/02 01:20:51;;;;;;;57.17;37.33;;;;;;;-145.63;100.00;61273.97;5011044;28;20069;-66
2024/03/02 01:23:19;;;;;;;66.45;40.92;;;;;;;-145.63;100.00;61273.97;5003975;28;20053;-66
2024/03/02 01:25:46;;;;;;;59.65;38.95;;;;;;;-145.63;100.00;61273.97;5003319;28;20045;-67
2024/03/02 01:28:12;;;;;;;60.40;39.42;;;;;;;-145.63;100.00;61273.97;5012692;28;20040;-67
2024/03/02 01:30:38;;;;;;;58.63;39.20;;;;;;;-145.63;100.00;61273.97;4995898;28;20045;-67
2024/03/02 01:33:05;;;;;;;56.90;37.53;;;;;;;-145.63;100.00;61273.97;5012973;28;20383;-66
2024/03/02 01:35:31;;;;;;;64.72;39.53;;;;;;;-145.63;100.00;61273.97;5002256;28;20545;-66
2024/03/02 01:37:57;;;;;;;55.80;38.35;;;;;;;-145.63;100.00;61273.97;5004195;28;20079;-67
2024/03/02 01:40:26;;;;;;;70.50;39.20;;;;;;;-145.63;100.00;61273.97;5015019;28;20030;-67
2024/03/02 01:42:58;;;;;;;64.30;38.55;;;;;;;-145.63;100.00;61273.97;5015003;28;20072;-67
2024/03/02 01:45:24;;;;;;;61.70;37.55;;;;;;;-145.63;100.00;61273.97;4995164;28;20043;-67
2024/03/02 01:47:50;;;;;;;58.45;38.13;;;;;;;-145.63;100.00;61273.97;4998288;28;20046;-66
2024/03/02 01:50:24;;;;;;;60.67;38.95;;;;;;;-145.63;100.00;61273.97;5006385;28;20519;-66
2024/03/02 01:52:50;;;;;;;60.85;38.00;;;;;;;-145.63;100.00;61273.97;5022369;28;20033;-65
2024/03/02 01:55:15;;;;;;;56.00;37.40;;;;;;;-145.63;100.00;61273.97;5031372;28;20104;-66
2024/03/02 01:57:41;;;;;;;61.45;40.67;;;;;;;-145.63;100.00;61273.97;5015128;28;20033;-66
2024/03/02 02:00:09;;;;;;;58.35;37.55;;;;;;;-145.63;100.00;61273.97;4997241;28;20335;-68
2024/03/02 02:02:35;;;;;;;62.20;39.00;;;;;;;-145.63;100.00;61273.97;5014846;28;20467;-67
2024/03/02 02:05:01;;;;;;;60.15;38.83;;;;;;;-145.63;100.00;61273.97;5004768;28;20088;-68
2024/03/02 02:07:27;;;;;;;59.20;40.67;;;;;;;-145.63;100.00;61273.97;4999366;28;20474;-67
2024/03/02 02:09:52;;;;;;;60.45;40.17;;;;;;;-145.63;100.00;61273.97;5014355;28;20022;-67
2024/03/02 02:12:18;;;;;;;62.80;38.92;;;;;;;-145.63;100.00;61273.97;4994986;28;20078;-67
2024/03/02 02:14:53;;;;;;;61.88;40.33;;;;;;;-145.63;100.00;61273.97;4996893;28;20530;-67
2024/03/02 02:17:19;;;;;;;64.00;40.70;;;;;;;-145.63;100.00;61273.97;5005880;28;20087;-66
2024/03/02 02:19:44;;;;;;;64.43;42.03;;;;;;;-145.63;100.00;61273.97;5007993;28;20360;-68
2024/03/02 02:22:11;;;;;;;69.20;43.28;;;;;;;-145.63;100.00;61273.97;4996878;28;20038;-67
2024/03/02 02:24:41;;;;;;;70.63;43.60;;;;;;;-145.63;100.00;61273.97;5014527;28;20451;-67
2024/03/02 02:27:07;;;;;;;65.53;42.10;;;;;;;-145.63;100.00;61273.97;4996696;28;20105;-69
2024/03/02 02:29:33;;;;;;;69.10;42.47;;;;;;;-145.63;100.00;61273.97;5007867;28;20032;-67
2024/03/02 02:31:58;;;;;;;68.25;43.10;;;;;;;-145.63;100.00;61273.97;5006012;28;20117;-67
2024/03/02 02:34:24;;;;;;;69.13;44.20;;;;;;;-145.63;100.00;61273.97;4997224;28;20121;-66
2024/03/02 02:36:49;;;;;;;62.05;42.22;;;;;;;-145.63;100.00;61273.97;5013771;28;20042;-66
2024/03/02 02:39:18;;;;;;;69.78;45.20;;;;;;;-145.63;100.00;61273.97;4994213;28;20060;-67
2024/03/02 02:41:44;;;;;;;66.85;44.28;;;;;;;-145.63;100.00;61273.97;4993726;28;20037;-67
2024/03/02 02:44:12;;;;;;;74.85;46.53;;;;;;;-145.63;100.00;61273.97;5013244;28;20029;-68
2024/03/02 02:46:39;;;;;;;72.10;45.78;;;;;;;-145.63;100.00;61273.97;5027662;28;20068;-66
2024/03/02 02:49:05;;;;;;;70.82;45.30;;;;;;;-145.63;100.00;61273.97;5012296;28;20026;-67
2024/03/02 02:51:31;;;;;;;73.97;47.45;;;;;;;-145.63;100.00;61273.97;4993445;28;20108;-68
2024/03/02 02:53:56;;;;;;;74.55;48.17;;;;;;;-145.63;100.00;61273.97;5009322;28;20032;-67
2024/03/02 02:56:22;;;;;;;66.88;46.80;;;;;;;-145.63;100.00;61273.97;5001334;28;20039;-69
2024/03/02 02:58:47;;;;;;;78.25;48.00;;;;;;;-145.63;100.00;61273.97;5000121;28;20029;-67
2024/03/02 03:01:14;;;;;;;79.85;48.28;;;;;;;-145.63;100.00;61273.97;5012448;28;20037;-67
2024/03/02 03:03:40;;;;;;;78.47;49.85;;;;;;;-145.63;100.00;61273.97;5013384;28;20037;-67
2024/03/02 03:06:06;;;;;;;73.65;46.55;;;;;;;-145.63;100.00;61273.97;4995866;28;20034;-69
2024/03/02 03:08:32;;;;;;;79.38;49.35;;;;;;;-145.63;100.00;61273.97;5003600;28;20037;-68
2024/03/02 03:10:57;;;;;;;80.80;49.17;;;;;;;-145.63;100.00;61273.97;5001236;28;20029;-68
2024/03/02 03:13:23;;;;;;;82.13;48.05;;;;;;;-145.63;100.00;61273.97;5009711;28;20034;-67
2024/03/02 03:15:48;;;;;;;74.20;48.75;;;;;;;-145.63;100.00;61273.97;4993552;28;20038;-67
2024/03/02 03:18:14;;;;;;;84.20;49.30;;;;;;;-145.63;100.00;61273.97;5011397;28;20034;-66
2024/03/02 03:20:40;;;;;;;84.07;50.67;;;;;;;-145.63;100.00;61273.97;4998255;28;20057;-67
2024/03/02 03:23:06;;;;;;;84.07;51.00;;;;;;;-145.63;100.00;61273.97;5001816;28;20041;-66
2024/03/02 03:25:31;;;;;;;81.70;51.55;;;;;;;-145.63;100.00;61273.97;5008440;28;20034;-68
2024/03/02 03:27:57;;;;;;;79.28;50.60;;;;;;;-145.63;100.00;61273.97;4993761;28;20034;-68
2024/03/02 03:30:23;;;;;;;78.20;50.55;;;;;;;-145.63;100.00;61273.97;5031640;28;20037;-66
2024/03/02 03:32:48;;;;;;;82.68;51.60;;;;;;;-145.63;100.00;61273.97;4974304;28;1269071;-67
2024/03/02 03:35:15;;;;;;;81.55;52.53;;;;;;;-145.63;100.00;61273.97;5013129;28;20041;-67
2024/03/02 03:37:41;;;;;;;81.38;52.63;;;;;;;-145.63;100.00;61273.97;5007985;28;20089;-68
2024/03/02 03:40:09;;;;;;;82.47;50.65;;;;;;;-145.63;100.00;61273.97;4993456;28;20030;-67
2024/03/02 03:42:36;;;;;;;96.07;54.22;;;;;;;-145.63;100.00;61273.97;4994070;28;20380;-66
2024/03/02 03:45:03;;;;;;;81.75;52.78;;;;;;;-145.63;100.00;61273.97;5009486;28;20041;-68
2024/03/02 03:47:33;;;;;;;82.90;54.08;;;;;;;-145.63;100.00;61273.97;5011927;28;20395;-67
2024/03/02 03:49:59;;;;;;;84.50;53.80;;;;;;;-145.63;100.00;61273.97;5013331;28;20028;-66
2024/03/02 03:52:25;;;;;;;92.07;59.42;;;;;;;-145.63;100.00;61273.97;5011951;28;20037;-66
2024/03/02 03:54:51;;;;;;;97.78;60.35;;;;;;;-145.63;100.00;61273.97;5013743;28;20464;-67
2024/03/02 03:57:17;;;;;;;92.78;60.25;;;;;;;-145.63;100.00;61273.97;4994692;28;20077;-66
2024/03/02 03:59:44;;;;;;;89.88;57.13;;;;;;;-145.63;100.00;61273.97;5007298;28;20069;-66
2024/03/02 04:02:11;;;;;;;87.18;56.92;;;;;;;-145.63;100.00;61273.97;5012810;28;20057;-67
2024/03/02 04:04:37;;;;;;;97.25;59.13;;;;;;;-145.63;100.00;61273.97;5008578;28;20114;-66
2024/03/02 04:07:02;;;;;;;92.07;57.92;;;;;;;-145.63;100.00;61273.97;4993152;28;20531;-67
2024/03/02 04:09:28;;;;;;;89.55;56.83;;;;;;;-145.63;100.00;61273.97;5013015;28;20553;-67
2024/03/02 04:11:54;;;;;;;88.75;55.92;;;;;;;-145.63;100.00;61273.97;4998067;28;20033;-66
2024/03/02 04:14:19;;;;;;;86.35;54.15;;;;;;;-145.63;100.00;61273.97;5004054;28;20036;-67
2024/03/02 04:16:45;;;;;;;87.03;52.75;;;;;;;-145.63;100.00;61273.97;5007324;28;20096;-66
2024/03/02 04:19:11;;;;;;;87.38;53.28;;;;;;;-145.63;100.00;61273.97;4993684;28;20023;-68
2024/03/02 04:21:37;;;;;;;85.32;54.38;;;;;;;-145.63;100.00;61273.97;5013306;28;20037;-66
2024/03/02 04:24:03;;;;;;;89.20;54.95;;;;;;;-145.63;100.00;61273.97;4997206;28;20034;-67
2024/03/02 04:26:28;;;;;;;85.97;53.60;;;;;;;-145.63;100.00;61273.97;5005382;28;20420;-67
2024/03/02 04:28:54;;;;;;;94.18;52.10;;;;;;;-145.63;100.00;61273.97;5006409;28;20120;-65
2024/03/02 04:31:20;;;;;;;79.80;49.97;;;;;;;-145.63;100.00;61273.97;4995498;28;20038;-66
2024/03/02 04:33:46;;;;;;;83.25;54.45;;;;;;;-145.63;100.00;61273.97;5010489;28;20057;-66
2024/03/02 04:36:12;;;;;;;98.80;55.90;;;;;;;-145.63;100.00;61273.97;5014255;28;20046;-68
2024/03/02 04:38:38;;;;;;;86.07;56.00;;;;;;;-145.63;100.00;61273.97;5004441;28;20030;-67
2024/03/02 04:41:08;;;;;;;82.47;56.53;;;;;;;-145.63;100.00;61273.97;5004957;28;20121;-67
2024/03/02 04:43:34;;;;;;;91.82;56.15;;;;;;;-145.63;100.00;61273.97;5016663;28;20045;-67
2024/03/02 04:46:01;;;;;;;87.63;52.13;;;;;;;-145.63;100.00;61273.97;5016112;28;20029;-68
2024/03/02 04:48:27;;;;;;;91.75;55.50;;;;;;;-145.63;100.00;61273.97;5015463;28;20452;-66
2024/03/02 04:50:52;;;;;;;88.70;54.38;;;;;;;-145.63;100.00;61273.97;5015670;28;20089;-66
2024/03/02 04:53:18;;;;;;;89.57;55.15;;;;;;;-145.63;100.00;61273.97;5005794;28;20622;-67
2024/03/02 04:58:09;;;;;;;82.20;47.92;;;;;;;-145.63;100.00;61273.97;5015664;28;20128;-66
2024/03/02 05:00:35;;;;;;;76.90;47.92;;;;;;;-145.63;100.00;61273.97;4999337;28;20030;-68
2024/03/02 05:03:02;;;;;;;82.22;48.10;;;;;;;-145.63;100.00;61273.97;5015596;28;20115;-67
2024/03/02 05:05:27;;;;;;;76.57;46.40;;;;;;;-145.63;100.00;61273.97;5004692;28;20030;-66
2024/03/02 05:07:53;;;;;;;73.75;48.35;;;;;;;-145.63;100.00;61273.97;5002113;28;20033;-66
2024/03/02 05:10:19;;;;;;;86.22;48.05;;;;;;;-145.63;100.00;61273.97;5013835;28;20036;-68
2024/03/02 05:15:12;;;;;;;74.88;48.80;;;;;;;-145.63;100.00;61273.97;5011719;28;20038;-65
2024/03/02 05:17:39;;;;;;;81.35;52.08;;;;;;;-145.63;100.00;61273.97;5015260;28;20120;-65
2024/03/02 05:20:07;;;;;;;84.05;55.50;;;;;;;-145.63;100.00;61273.97;5014095;28;20491;-64
2024/03/02 05:22:34;;;;;;;89.95;60.08;;;;;;;-145.63;100.00;61273.97;5012053;28;20034;-65
2024/03/02 05:25:06;;;;;;;95.45;64.90;;;;;;;-145.63;100.00;61273.97;4996270;28;20032;-66
2024/03/02 05:27:35;;;;;;;97.38;62.00;;;;;;;-145.63;100.00;61273.97;5014215;28;20085;-66
2024/03/02 05:30:01;;;;;;;88.57;57.90;;;;;;;-145.63;100.00;61273.97;5014911;28;20486;-65
2024/03/02 05:32:30;;;;;;;96.03;60.78;;;;;;;-145.63;100.00;61273.97;5015206;28;20438;-66
2024/03/02 05:34:56;;;;;;;93.15;61.42;;;;;;;-145.63;100.00;61273.97;5009087;28;20038;-66
2024/03/02 05:37:22;;;;;;;94.75;59.78;;;;;;;-145.63;100.00;61273.97;4996831;28;20105;-66
2024/03/02 05:39:47;;;;;;;86.05;56.05;;;;;;;-145.63;100.00;61273.97;5011845;28;20685;-66
2024/03/02 05:42:13;;;;;;;83.75;54.08;;;;;;;-145.63;100.00;61273.97;5011597;28;20032;-66
2024/03/02 05:44:39;;;;;;;75.80;47.05;;;;;;;-145.63;100.00;61273.97;5014388;28;20026;-67
2024/03/02 05:47:05;;;;;;;74.72;48.08;;;;;;;-145.63;100.00;61273.97;5014825;28;20037;-67
2024/03/02 05:49:30;;;;;;;71.82;43.25;;;;;;;-145.63;100.00;61273.97;5014744;28;20064;-65
2024/03/02 05:51:56;;;;;;;69.55;42.53;;;;;;;-145.63;100.00;61273.97;5015040;28;20444;-65
2024/03/02 05:54:22;;;;;;;71.72;44.28;;;;;;;-145.63;100.00;61273.97;5014458;28;20464;-64
2024/03/02 05:56:48;;;;;;;66.50;39.83;;;;;;;-145.63;100.00;61273.97;5001253;28;20113;-65
2024/03/02 05:59:15;;;;;;;66.30;40.95;;;;;;;-145.63;100.00;61273.97;5003542;28;20034;-65
2024/03/02 06:01:42;;;;;;;70.07;40.35;;;;;;;-145.63;100.00;61273.97;5015368;28;20026;-66
2024/03/02 06:04:10;;;;;;;62.85;40.03;;;;;;;-145.63;100.00;61273.97;5014627;28;20034;-66
2024/03/02 06:06:37;;;;;;;71.28;42.08;;;;;;;-145.63;100.00;61273.97;4994853;28;20026;-65
2024/03/02 06:09:07;;;;;;;63.05;40.60;;;;;;;-145.63;100.00;61273.97;5009449;28;20534;-66
2024/03/02 06:11:34;;;;;;;66.28;40.83;;;;;;;-145.63;100.00;61273.97;5014343;28;20030;-66
2024/03/02 06:14:00;;;;;;;66.93;41.83;;;;;;;-145.63;100.00;61273.97;5014425;28;20387;-64
2024/03/02 06:16:25;;;;;;;66.20;40.65;;;;;;;-145.63;100.00;61273.97;5012779;28;20030;-65
2024/03/02 06:18:51;;;;;;;66.38;40.25;;;;;;;-145.63;100.00;61273.97;4995106;28;20034;-66
2024/03/02 06:21:18;;;;;;;69.88;41.13;;;;;;;-145.63;100.00;61273.97;5011227;28;20030;-65
2024/03/02 06:23:44;;;;;;;65.28;42.50;;;;;;;-145.63;100.00;61273.97;5001872;28;20060;-64
2024/03/02 06:26:10;;;;;;;69.55;41.22;;;;;;;-145.63;100.00;61273.97;5009922;28;20116;-66
2024/03/02 06:28:35;;;;;;;74.43;43.83;;;;;;;-145.63;100.00;61273.97;5030994;28;20034;-65
2024/03/02 06:31:02;;;;;;;69.22;43.63;;;;;;;-145.63;100.00;61273.97;5014368;28;20037;-65
2024/03/02 06:33:28;;;;;;;70.63;42.63;;;;;;;-145.63;100.00;61273.97;4995901;28;20476;-65
2024/03/02 06:35:54;;;;;;;66.85;43.33;;;;;;;-145.63;100.00;61273.97;5007794;28;20065;-65
2024/03/02 06:38:20;;;;;;;72.53;43.88;;;;;;;-145.63;100.00;61273.97;5004587;28;20028;-65
2024/03/02 06:40:45;;;;;;;74.05;45.22;;;;;;;-145.63;100.00;61273.97;4994304;28;20037;-65
2024/03/02 06:43:11;;;;;;;78.72;46.70;;;;;;;-145.63;100.00;61273.97;4994190;28;20037;-65
2024/03/02 06:45:37;;;;;;;71.43;44.05;;;;;;;-145.63;100.00;61273.97;5013962;28;20029;-65
2024/03/02 06:48:02;;;;;;;77.15;45.88;;;;;;;-145.63;100.00;61273.97;5008363;28;20057;-65
2024/03/02 06:50:28;;;;;;;73.13;45.63;;;;;;;-145.63;100.00;61273.97;5003894;28;20034;-65
2024/03/02 06:52:55;;;;;;;72.63;45.22;;;;;;;-145.63;100.00;61273.97;4999014;28;20049;-65
2024/03/02 06:55:22;;;;;;;74.13;44.67;;;;;;;-145.63;100.00;61273.97;5012388;28;20091;-65
2024/03/02 06:57:47;;;;;;;73.18;44.15;;;;;;;-145.63;100.00;61273.97;4994067;28;20057;-66
2024/03/02 07:00:13;;;;;;;72.32;44.35;;;;;;;-145.63;100.00;61273.97;5010132;28;20105;-66
2024/03/02 07:02:42;;;;;;;69.72;44.03;;;;;;;-145.63;100.00;61273.97;5013971;28;20048;-65
2024/03/02 07:05:08;;;;;;;68.82;42.35;;;;;;;-145.63;100.00;61273.97;5006758;28;20038;-65
2024/03/02 07:07:35;;;;;;;69.95;44.15;;;;;;;-145.63;100.00;61273.97;4996499;28;20026;-65
2024/03/02 07:10:01;;;;;;;68.43;41.58;;;;;;;-145.63;100.00;61273.97;5013577;28;20120;-65
2024/03/02 07:12:27;;;;;;;67.82;43.58;;;;;;;-145.63;100.00;61273.97;4995883;28;20034;-66
2024/03/02 07:17:31;;;;;;;63.13;42.17;;;;;;;-145.63;100.00;61273.97;5023606;28;20038;-66
2024/03/02 07:19:57;;;;;;;66.57;42.05;;;;;;;-145.63;100.00;61273.97;5008080;28;20034;-65
2024/03/02 07:22:23;;;;;;;70.38;42.47;;;;;;;-145.63;100.00;61273.97;4994685;28;20085;-67
2024/03/02 07:24:49;;;;;;;65.05;43.17;;;;;;;-145.63;100.00;61273.97;5013754;28;20029;-67
2024/03/02 07:27:16;;;;;;;66.25;42.75;;;;;;;-145.63;100.00;61273.97;4997066;28;20049;-67
2024/03/02 07:29:42;;;;;;;68.97;43.63;;;;;;;-145.63;100.00;61273.97;5004852;28;20026;-65
2024/03/02 07:32:09;;;;;;;58.03;40.70;;;;;;;-145.63;100.00;61273.97;5006704;28;20026;-65
2024/03/02 07:34:35;;;;;;;70.10;42.65;;;;;;;-145.63;100.00;61273.97;4996622;28;20042;-65
2024/03/02 07:37:01;;;;;;;64.97;42.78;;;;;;;-145.63;100.00;61273.97;5013031;28;20034;-66
2024/03/02 07:39:27;;;;;;;60.08;38.15;;;;;;;-145.63;100.00;61273.97;4995660;28;20038;-65
2024/03/02 07:41:53;;;;;;;59.65;39.97;;;;;;;-145.63;100.00;61273.97;4993205;28;20038;-66
2024/03/02 07:44:21;;;;;;;65.97;43.53;;;;;;;-145.63;100.00;61273.97;5001792;28;20033;-66
2024/03/02 07:46:51;;;;;;;65.43;41.95;;;;;;;-145.63;100.00;61273.97;5009348;28;20050;-64
2024/03/02 07:49:17;;;;;;;67.55;44.35;;;;;;;-145.63;100.00;61273.97;4993424;28;20027;-66
2024/03/02 07:51:43;;;;;;;65.28;43.50;;;;;;;-145.63;100.00;61273.97;5012852;28;20034;-67
2024/03/02 07:54:10;;;;;;;72.95;49.50;;;;;;;-145.63;100.00;61273.97;5011791;28;20026;-66
2024/03/02 07:56:36;;;;;;;69.10;44.78;;;;;;;-145.63;100.00;61273.97;5003286;28;20028;-66
2024/03/02 07:59:02;;;;;;;68.40;43.33;;;;;;;-145.63;100.00;61273.97;4999213;28;20026;-66
2024/03/02 08:01:31;;;;;;;66.28;44.28;;;;;;;-145.63;100.00;61273.97;5011322;28;20045;-64
2024/03/02 08:03:58;;;;;;;65.25;44.45;;;;;;;-145.63;100.00;61273.97;5012826;28;20044;-66
2024/03/02 08:06:27;;;;;;;64.45;42.42;;;;;;;-145.63;100.00;61273.97;5013969;28;20030;-65
2024/03/02 08:08:54;;;;;;;67.72;43.15;;;;;;;-145.63;100.00;61273.97;4986750;28;20503;-66
2024/03/02 08:11:21;;;;;;;61.72;40.30;;;;;;;-145.63;100.00;61273.97;5003714;28;20033;-65
2024/03/02 08:13:47;;;;;;;61.65;41.05;;;;;;;-145.63;100.00;61273.97;5003373;28;20022;-66
2024/03/02 08:16:14;;;;;;;59.63;40.08;;;;;;;-145.63;100.00;61273.97;5016224;28;20037;-69
2024/03/02 08:18:40;;;;;;;61.22;43.03;;;;;;;-145.63;100.00;61273.97;4998063;28;20337;-67
2024/03/02 08:21:07;;;;;;;64.47;40.55;;;;;;;-145.63;100.00;61273.97;5011088;28;20045;-65
2024/03/02 08:23:34;;;;;;;60.92;40.95;;;;;;;-145.63;100.00;61273.97;5006853;28;20038;-65
2024/03/02 08:26:00;;;;;;;63.63;40.05;;;;;;;-145.63;100.00;61273.97;5002298;28;20094;-64
2024/03/02 08:28:26;;;;;;;62.38;40.20;;;;;;;-145.63;100.00;61273.97;5014601;28;20131;-64
2024/03/02 08:30:51;;;;;;;63.63;39.78;;;;;;;-145.63;100.00;61273.97;4999862;28;20049;-66
2024/03/02 08:33:17;;;;;;;61.55;38.00;;;;;;;-145.63;100.00;61273.97;5005422;28;20173;-64
2024/03/02 08:35:43;;;;;;;60.80;38.08;;;;;;;-145.63;100.00;61273.97;5008016;28;20069;-65
2024/03/02 08:38:09;;;;;;;57.80;37.67;;;;;;;-145.63;100.00;61273.97;5009687;28;20038;-65
2024/03/02 08:40:34;;;;;;;58.10;36.95;;;;;;;-145.63;100.00;61273.97;5009204;28;20463;-65
2024/03/02 08:43:00;;;;;;;56.63;37.58;;;;;;;-145.63;100.00;61273.97;5014287;28;20038;-64
2024/03/02 08:45:26;;;;;;;62.35;39.30;;;;;;;-145.63;100.00;61273.97;5011931;28;20034;-66
2024/03/02 08:47:52;;;;;;;63.20;38.28;;;;;;;-145.63;100.00;61273.97;5004124;28;20547;-65
2024/03/02 08:50:18;;;;;;;55.40;34.20;;;;;;;-145.63;100.00;61273.97;5002869;28;20030;-64
2024/03/02 08:52:43;;;;;;;52.75;33.83;;;;;;;-145.63;100.00;61273.97;5014371;28;20044;-66
2024/03/02 08:55:11;;;;;;;57.42;35.15;;;;;;;-145.63;100.00;61273.97;5015058;28;20497;-65
2024/03/02 08:57:37;;;;;;;55.53;35.47;;;;;;;-145.63;100.00;61273.97;5007007;28;20109;-64
2024/03/02 09:00:05;;;;;;;54.85;33.75;;;;;;;-145.63;100.00;61273.97;5001867;28;20041;-64
2024/03/02 09:02:31;;;;;;;55.00;34.58;;;;;;;-145.63;100.00;61273.97;4996160;28;20030;-64
2024/03/02 09:04:57;;;;;;;56.50;34.33;;;;;;;-145.63;100.00;61273.97;5000395;28;20044;-63
2024/03/02 09:07:22;;;;;;;55.90;35.15;;;;;;;-145.63;100.00;61273.97;5015790;28;20040;-64
2024/03/02 09:09:48;;;;;;;53.35;34.22;;;;;;;-145.63;100.00;61273.97;4995565;28;20046;-65
2024/03/02 09:12:14;;;;;;;54.60;35.05;;;;;;;-145.63;100.00;61273.97;5015301;28;20030;-62
2024/03/02 09:14:40;;;;;;;53.30;34.47;;;;;;;-145.63;100.00;61273.97;5005016;28;20460;-64
2024/03/02 09:17:06;;;;;;;50.15;33.70;;;;;;;-145.63;100.00;61273.97;5001010;28;20034;-63
2024/03/02 09:19:31;;;;;;;50.65;33.67;;;;;;;-145.63;100.00;61273.97;5014601;28;20034;-65
2024/03/02 09:21:58;;;;;;;54.40;33.17;;;;;;;-145.63;100.00;61273.97;4995708;28;20026;-64
2024/03/02 09:24:24;;;;;;;58.05;34.33;;;;;;;-145.63;100.00;61273.97;5026658;28;20029;-62
2024/03/02 09:26:50;;;;;;;54.03;33.15;;;;;;;-145.63;100.00;61273.97;5022921;28;20502;-62
2024/03/02 09:29:15;;;;;;;53.47;34.03;;;;;;;-145.63;100.00;61273.97;5014303;28;20057;-65
2024/03/02 09:31:42;;;;;;;49.25;32.63;;;;;;;-145.63;100.00;61273.97;5016185;28;20088;-64
2024/03/02 09:34:08;;;;;;;52.67;33.65;;;;;;;-145.63;100.00;61273.97;5013315;28;20038;-63
2024/03/02 09:36:33;;;;;;;49.03;30.83;;;;;;;-145.63;100.00;61273.97;5009853;28;20120;-64
2024/03/02 09:38:59;;;;;;;53.80;32.78;;;;;;;-145.63;100.00;61273.97;5013607;28;20081;-63
2024/03/02 09:41:25;;;;;;;47.65;32.22;;;;;;;-145.63;100.00;61273.97;5014451;28;20038;-63
2024/03/02 09:43:50;;;;;;;51.63;32.90;;;;;;;-145.63;100.00;61273.97;4999966;28;20489;-64
2024/03/02 09:46:16;;;;;;;51.85;33.17;;;;;;;-145.63;100.00;61273.97;5014741;28;20049;-63
2024/03/02 09:48:44;;;;;;;50.65;33.17;;;;;;;-145.63;100.00;61273.97;5015185;28;20040;-64
2024/03/02 09:51:10;;;;;;;52.95;31.75;;;;;;;-145.63;100.00;61273.97;5013678;28;20479;-64
2024/03/02 09:53:36;;;;;;;57.45;33.67;;;;;;;-145.63;100.00;61273.97;5011516;28;20041;-64
2024/03/02 09:56:02;;;;;;;46.40;31.27;;;;;;;-145.63;100.00;61273.97;5014015;28;20030;-63
2024/03/02 09:58:28;;;;;;;56.28;34.70;;;;;;;-145.63;100.00;61273.97;5013050;28;20388;-65
2024/03/02 10:00:54;;;;;;;50.60;32.55;;;;;;;-145.63;100.00;61273.97;5005174;28;20487;-65
2024/03/02 10:03:21;;;;;;;54.78;32.53;;;;;;;-145.63;100.00;61273.97;5008877;28;20045;-64
2024/03/02 10:05:46;;;;;;;50.00;32.47;;;;;;;-145.63;100.00;61273.97;5013468;28;20042;-63
2024/03/02 10:08:12;;;;;;;51.97;31.75;;;;;;;-145.63;100.00;61273.97;5007296;28;20118;-63
2024/03/02 10:10:40;;;;;;;50.08;32.45;;;;;;;-145.63;100.00;61273.97;4997412;28;20116;-62
2024/03/02 10:13:10;;;;;;;53.58;33.88;;;;;;;-145.63;100.00;61273.97;5009483;28;20041;-65
2024/03/02 10:15:37;;;;;;;52.47;34.53;;;;;;;-145.63;100.00;61273.97;5013453;28;20404;-64
2024/03/02 10:18:13;;;;;;;46.00;32.22;;;;;;;-145.63;100.00;61273.97;5004016;28;20068;-63
2024/03/02 10:20:40;;;;;;;49.97;32.67;;;;;;;-145.63;100.00;61273.97;5003842;28;20026;-64
2024/03/02 10:23:14;;;;;;;50.38;34.22;;;;;;;-145.63;100.00;61273.97;5009945;28;20483;-64
2024/03/02 10:25:41;;;;;;;52.25;32.97;;;;;;;-145.63;100.00;61273.97;5012579;28;20029;-64
2024/03/02 10:28:07;;;;;;;50.00;33.78;;;;;;;-145.63;100.00;61273.97;5013671;28;20037;-63
2024/03/02 10:30:36;;;;;;;58.97;33.15;;;;;;;-145.63;100.00;61273.97;4999038;28;20042;-66
2024/03/02 10:33:02;;;;;;;51.65;32.70;;;;;;;-145.63;100.00;61273.97;5012429;28;20204;-63
2024/03/02 10:35:28;;;;;;;57.35;33.95;;;;;;;-145.63;100.00;61273.97;5008606;28;20034;-66
2024/03/02 10:37:55;;;;;;;49.92;32.53;;;;;;;-145.63;100.00;61273.97;5011436;28;20057;-65
2024/03/02 10:40:23;;;;;;;49.30;31.58;;;;;;;-145.63;100.00;61273.97;4996227;28;20064;-65
2024/03/02 10:42:52;;;;;;;48.13;30.35;;;;;;;-145.63;100.00;61273.97;5010682;28;20038;-65
2024/03/02 10:45:22;;;;;;;48.67;30.90;;;;;;;-145.63;100.00;61273.97;5005857;28;20026;-66
2024/03/02 10:47:48;;;;;;;44.25;29.30;;;;;;;-145.63;100.00;61273.97;5003868;28;20076;-63
2024/03/02 10:50:14;;;;;;;46.40;28.80;;;;;;;-145.63;100.00;61273.97;4994827;28;20030;-65
2024/03/02 10:52:40;;;;;;;48.72;31.55;;;;;;;-145.63;100.00;61273.97;5013377;28;20370;-66
2024/03/02 10:55:09;;;;;;;46.28;32.92;;;;;;;-145.63;100.00;61273.97;5013477;28;20033;-67
2024/03/02 10:57:42;;;;;;;49.97;32.60;;;;;;;-145.63;100.00;61273.97;5011972;28;20034;-69
2024/03/02 11:00:14;;;;;;;42.38;30.92;;;;;;;-145.63;100.00;61273.97;4998895;28;20540;-66